Time;durP1;ratioP1;P1;durP2;ratioP2;P2;SDS_P1;SDS_P2;PMS_P1;PMS_P2;Temp;Humidity;BMP_temperature;BMP_pressure;BME280_temperature;BME280_humidity;BME280_pressure;Samples;Min_cycle;Max_cycle;Signal;HPM_P1;HPM_P2
2022/01/03 00:01:39;;;;;;;46.83;32.03;;;6.20;95.00;;;;;;5092753;28;20028;-67
2022/01/03 00:04:06;;;;;;;49.83;33.50;;;6.20;95.00;;;;;;5092963;28;20016;-68
2022/01/03 00:06:34;;;;;;;49.23;32.80;;;6.20;94.90;;;;;;5093162;28;20028;-68
2022/01/03 00:09:01;;;;;;;48.33;32.73;;;6.20;95.00;;;;;;5093194;28;20020;-67
2022/01/03 00:11:27;;;;;;;50.93;34.40;;;6.20;94.90;;;;;;5093130;28;20016;-67
2022/01/03 00:13:53;;;;;;;48.63;32.93;;;6.30;94.90;;;;;;5092552;28;20024;-67
2022/01/03 00:16:23;;;;;;;45.20;31.27;;;6.30;94.80;;;;;;5092800;28;20051;-68
2022/01/03 00:18:50;;;;;;;45.73;31.17;;;6.30;94.70;;;;;;5092711;28;20031;-67
2022/01/03 00:21:17;;;;;;;45.90;31.90;;;6.30;94.70;;;;;;5092988;28;20032;-67
2022/01/03 00:24:04;;;;;;;47.73;32.50;;;6.30;94.70;;;;;;5092742;28;20016;-67
2022/01/03 00:26:34;;;;;;;46.13;32.23;;;6.30;94.80;;;;;;5092764;28;20468;-67
2022/01/03 00:29:05;;;;;;;45.70;31.97;;;6.30;94.80;;;;;;5092735;28;20039;-67
2022/01/03 00:31:39;;;;;;;42.50;30.60;;;6.30;94.80;;;;;;5092812;28;20135;-68
2022/01/03 00:34:06;;;;;;;42.03;29.13;;;6.30;94.80;;;;;;5092862;28;20103;-67
2022/01/03 00:36:33;;;;;;;37.80;27.60;;;6.30;94.70;;;;;;5096220;28;20035;-67
2022/01/03 00:38:59;;;;;;;42.97;29.97;;;6.40;94.70;;;;;;5096250;28;20032;-68
2022/01/03 00:41:25;;;;;;;37.57;27.20;;;6.40;94.80;;;;;;5096201;28;20036;-68
2022/01/03 00:43:53;;;;;;;38.67;28.00;;;6.40;94.80;;;;;;5096223;28;20021;-68
2022/01/03 00:46:19;;;;;;;37.70;28.33;;;6.40;94.80;;;;;;5095163;28;20028;-67
2022/01/03 00:48:45;;;;;;;39.63;28.47;;;6.40;94.70;;;;;;5096589;28;20020;-67
2022/01/03 00:51:14;;;;;;;40.50;27.37;;;6.40;94.70;;;;;;5096605;28;20099;-68
2022/01/03 00:53:40;;;;;;;38.57;27.27;;;6.40;94.60;;;;;;5095988;28;20480;-67
2022/01/03 00:56:13;;;;;;;37.83;27.87;;;6.40;94.50;;;;;;5096173;28;20051;-67
2022/01/03 00:59:12;;;;;;;37.90;27.67;;;6.40;94.50;;;;;;5096361;28;20367;-67
2022/01/03 01:01:44;;;;;;;42.03;28.87;;;6.40;94.50;;;;;;5095708;28;20450;-68
2022/01/03 01:04:10;;;;;;;37.35;27.73;;;6.40;94.50;;;;;;5095990;28;20529;-67
2022/01/03 01:06:38;;;;;;;39.33;28.47;;;6.40;94.50;;;;;;5096118;28;20028;-67
2022/01/03 01:09:06;;;;;;;40.73;27.93;;;6.40;94.50;;;;;;5095880;28;20115;-68
2022/01/03 01:11:32;;;;;;;38.83;28.60;;;6.40;94.50;;;;;;5094876;28;20471;-67
2022/01/03 01:13:59;;;;;;;39.43;29.20;;;6.40;94.90;;;;;;5095834;28;20020;-68
2022/01/03 01:16:25;;;;;;;42.07;28.33;;;6.40;94.90;;;;;;5096005;28;20020;-67
2022/01/03 01:18:52;;;;;;;38.73;27.63;;;6.40;94.90;;;;;;5095840;28;20061;-68
2022/01/03 01:21:18;;;;;;;36.80;27.67;;;6.40;94.90;;;;;;5095667;28;20055;-67
2022/01/03 01:23:44;;;;;;;40.47;27.70;;;6.30;94.80;;;;;;5095795;28;20020;-67
2022/01/03 01:28:54;;;;;;;37.20;27.23;;;6.30;94.90;;;;;;5095992;28;20533;-67
2022/01/03 01:31:22;;;;;;;38.10;28.30;;;6.30;94.80;;;;;;5095461;28;20520;-67
2022/01/03 01:33:53;;;;;;;35.77;26.10;;;6.30;94.70;;;;;;5095305;28;20488;-69
2022/01/03 01:36:21;;;;;;;37.77;27.03;;;6.40;94.80;;;;;;5095726;28;20035;-67
2022/01/03 01:38:49;;;;;;;34.50;26.07;;;6.40;94.70;;;;;;5095360;28;20066;-67
2022/01/03 01:41:19;;;;;;;35.67;26.67;;;6.40;94.70;;;;;;5095284;28;20035;-67
2022/01/03 01:43:46;;;;;;;38.50;26.33;;;6.30;94.60;;;;;;5095242;28;20035;-67
2022/01/03 01:46:18;;;;;;;36.50;26.13;;;6.40;94.60;;;;;;5095056;28;20483;-67
2022/01/03 01:48:46;;;;;;;34.63;25.67;;;6.30;94.60;;;;;;5095608;28;20051;-68
2022/01/03 01:51:14;;;;;;;33.97;26.13;;;6.30;94.90;;;;;;5095287;28;20422;-67
2022/01/03 01:54:04;;;;;;;38.87;26.47;;;6.30;94.90;;;;;;5095119;28;20039;-68
2022/01/03 01:56:50;;;;;;;35.93;25.83;;;6.30;94.90;;;;;;5094976;28;20016;-68
2022/01/03 01:59:20;;;;;;;33.87;24.53;;;6.30;94.70;;;;;;5091805;28;20075;-67
2022/01/03 02:01:49;;;;;;;30.70;23.90;;;6.40;94.60;;;;;;5090542;28;20166;-67
2022/01/03 02:04:31;;;;;;;38.13;24.47;;;6.40;94.50;;;;;;5092483;28;20095;-67
2022/01/03 02:07:09;;;;;;;32.73;23.23;;;6.40;94.40;;;;;;5094424;28;20028;-67
2022/01/03 02:09:42;;;;;;;33.00;23.23;;;6.40;94.20;;;;;;5094712;28;20380;-68
2022/01/03 02:12:16;;;;;;;;;;;6.40;94.10;;;;;;5095059;28;20034;-67
2022/01/03 02:14:44;;;;;;;30.13;20.00;;;6.40;94.00;;;;;;5094500;28;19966;-67
2022/01/03 02:17:10;;;;;;;27.93;19.87;;;6.40;93.80;;;;;;5094664;28;20020;-68
2022/01/03 02:19:40;;;;;;;26.20;19.17;;;6.40;93.80;;;;;;5094400;28;20032;-71
2022/01/03 02:22:06;;;;;;;26.13;19.10;;;6.40;93.90;;;;;;5094136;28;20040;-68
2022/01/03 02:24:31;;;;;;;30.00;20.27;;;6.40;93.90;;;;;;5094207;28;20085;-67
2022/01/03 02:27:00;;;;;;;24.03;18.47;;;6.30;93.90;;;;;;5094505;28;20028;-67
2022/01/03 02:29:26;;;;;;;29.03;20.47;;;6.40;93.90;;;;;;5094152;28;20373;-68
2022/01/03 02:31:52;;;;;;;27.60;19.33;;;6.30;93.90;;;;;;5094397;28;20077;-67
2022/01/03 02:34:17;;;;;;;26.13;18.40;;;6.30;94.00;;;;;;5093992;28;20056;-67
2022/01/03 02:36:45;;;;;;;24.50;18.07;;;6.30;93.90;;;;;;5094056;28;20027;-67
2022/01/03 02:39:11;;;;;;;24.70;18.70;;;6.30;93.90;;;;;;5094357;28;20032;-67
2022/01/03 02:41:37;;;;;;;26.03;18.97;;;6.30;93.80;;;;;;5094073;28;20035;-67
2022/01/03 02:44:02;;;;;;;25.03;18.70;;;6.30;93.90;;;;;;5093673;28;20099;-68
2022/01/03 02:46:28;;;;;;;27.90;19.77;;;6.30;94.10;;;;;;5093773;28;20032;-67
2022/01/03 02:48:54;;;;;;;27.07;19.87;;;6.20;94.40;;;;;;5094120;28;20099;-67
2022/01/03 02:51:19;;;;;;;27.20;20.03;;;6.20;94.50;;;;;;5093755;28;20449;-67
2022/01/03 02:53:46;;;;;;;26.80;19.67;;;6.20;94.50;;;;;;5093741;28;20107;-68
2022/01/03 02:56:11;;;;;;;28.33;20.90;;;6.20;94.50;;;;;;5093692;28;20016;-67
2022/01/03 02:58:37;;;;;;;27.43;19.97;;;6.20;94.50;;;;;;5092864;28;20020;-67
2022/01/03 03:01:04;;;;;;;30.30;19.47;;;6.20;94.50;;;;;;5093827;28;20036;-67
2022/01/03 03:03:30;;;;;;;25.67;19.37;;;6.20;94.50;;;;;;5093864;28;20034;-68
2022/01/03 03:05:58;;;;;;;25.87;19.37;;;6.30;94.50;;;;;;5093744;28;20099;-67
2022/01/03 03:08:23;;;;;;;27.00;20.33;;;6.20;94.40;;;;;;5093904;28;20400;-67
2022/01/03 03:10:49;;;;;;;28.03;21.10;;;6.30;94.40;;;;;;5093833;28;20020;-67
2022/01/03 03:13:15;;;;;;;30.07;20.30;;;6.30;94.40;;;;;;5093381;28;20027;-68
2022/01/03 03:15:41;;;;;;;32.03;22.03;;;6.30;94.40;;;;;;5093617;28;20024;-67
2022/01/03 03:18:07;;;;;;;29.83;21.37;;;6.30;94.40;;;;;;5093693;28;20063;-67
2022/01/03 03:20:33;;;;;;;29.97;22.27;;;6.30;94.50;;;;;;5093472;28;20044;-67
2022/01/03 03:23:00;;;;;;;29.27;22.13;;;6.30;94.40;;;;;;5093688;28;20072;-67
2022/01/03 03:25:29;;;;;;;28.10;21.63;;;6.30;94.30;;;;;;5093583;28;20020;-67
2022/01/03 03:28:01;;;;;;;29.13;22.17;;;6.30;94.30;;;;;;5093410;28;20101;-67
2022/01/03 03:30:47;;;;;;;29.60;21.87;;;6.30;94.30;;;;;;5093321;28;20036;-67
2022/01/03 03:33:16;;;;;;;31.73;22.50;;;6.30;94.30;;;;;;5093251;28;20024;-67
2022/01/03 03:35:43;;;;;;;29.10;21.77;;;6.40;94.40;;;;;;5093076;28;20028;-68
2022/01/03 03:38:09;;;;;;;29.03;21.73;;;6.40;94.30;;;;;;5093262;28;20430;-67
2022/01/03 03:40:35;;;;;;;30.97;21.60;;;6.40;94.30;;;;;;5093408;28;20468;-68
2022/01/03 03:43:01;;;;;;;28.13;22.23;;;6.40;94.30;;;;;;5093097;28;20127;-67
2022/01/03 03:45:26;;;;;;;32.57;21.83;;;6.40;94.20;;;;;;5093226;28;20108;-68
2022/01/03 03:47:53;;;;;;;28.50;22.03;;;6.40;94.30;;;;;;5093326;28;20020;-67
2022/01/03 03:50:20;;;;;;;33.63;23.23;;;6.40;94.30;;;;;;5093354;28;20016;-67
2022/01/03 03:52:46;;;;;;;28.07;21.60;;;6.40;94.40;;;;;;5093384;28;20376;-68
2022/01/03 03:55:12;;;;;;;30.30;23.30;;;6.30;94.40;;;;;;5093385;28;20016;-68
2022/01/03 03:57:38;;;;;;;32.27;23.83;;;6.30;94.50;;;;;;5093194;28;20020;-67
2022/01/03 04:00:08;;;;;;;30.50;22.57;;;6.30;94.60;;;;;;5093171;28;20020;-67
2022/01/03 04:02:34;;;;;;;34.03;23.87;;;6.30;94.50;;;;;;5092875;28;20043;-67
2022/01/03 04:05:01;;;;;;;33.00;25.50;;;6.30;94.50;;;;;;5093049;28;20024;-67
2022/01/03 04:07:27;;;;;;;36.50;24.93;;;6.40;94.50;;;;;;5093220;28;20024;-67
2022/01/03 04:09:53;;;;;;;37.83;27.23;;;6.40;94.40;;;;;;5093802;28;20028;-67
2022/01/03 04:12:19;;;;;;;37.13;25.97;;;6.40;94.40;;;;;;5096975;28;20052;-67
2022/01/03 04:14:44;;;;;;;34.53;25.80;;;6.40;94.40;;;;;;5097064;28;20463;-67
2022/01/03 04:17:11;;;;;;;36.70;24.80;;;6.40;94.70;;;;;;5097044;28;20107;-67
2022/01/03 04:19:37;;;;;;;35.00;25.13;;;6.40;94.60;;;;;;5096803;28;20113;-68
2022/01/03 04:22:03;;;;;;;37.30;25.03;;;6.50;94.60;;;;;;5096656;28;20040;-67
2022/01/03 04:24:29;;;;;;;31.90;24.10;;;6.40;94.50;;;;;;5096748;28;20020;-67
2022/01/03 04:26:55;;;;;;;42.47;26.13;;;6.50;94.60;;;;;;5096770;28;20036;-67
2022/01/03 04:29:21;;;;;;;37.80;27.40;;;6.40;94.70;;;;;;5096829;28;20042;-67
2022/01/03 04:31:47;;;;;;;37.30;27.30;;;6.40;94.70;;;;;;5096622;28;20032;-67
2022/01/03 04:34:13;;;;;;;37.43;28.03;;;6.40;94.70;;;;;;5096577;28;20020;-68
2022/01/03 04:36:39;;;;;;;43.70;29.80;;;6.40;94.80;;;;;;5096560;28;20073;-67
2022/01/03 04:39:06;;;;;;;43.63;29.37;;;6.40;94.90;;;;;;5095238;28;20027;-68
2022/01/03 04:41:32;;;;;;;40.50;29.30;;;6.40;94.90;;;;;;5096610;28;20032;-68
2022/01/03 04:43:58;;;;;;;39.80;28.30;;;6.40;94.90;;;;;;5096550;28;20024;-68
2022/01/03 04:46:24;;;;;;;42.00;29.73;;;6.40;95.50;;;;;;5096340;28;20487;-67
2022/01/03 04:48:49;;;;;;;40.40;28.30;;;6.40;95.40;;;;;;5096340;28;20027;-67
2022/01/03 04:51:15;;;;;;;38.10;28.87;;;6.40;95.40;;;;;;5096375;28;20020;-67
2022/01/03 04:53:41;;;;;;;43.07;29.17;;;6.40;95.20;;;;;;5095924;28;20109;-67
2022/01/03 04:56:09;;;;;;;41.10;28.73;;;6.40;95.10;;;;;;5096264;28;20024;-67
2022/01/03 04:58:35;;;;;;;43.20;28.73;;;6.40;95.10;;;;;;5096243;28;20024;-67
2022/01/03 05:01:00;;;;;;;41.70;28.83;;;6.50;95.10;;;;;;5095798;28;20043;-67
2022/01/03 05:03:26;;;;;;;41.90;28.90;;;6.50;95.20;;;;;;5095987;28;20052;-68
2022/01/03 05:05:52;;;;;;;36.97;27.33;;;6.50;95.20;;;;;;5096019;28;20016;-67
2022/01/03 05:08:18;;;;;;;43.43;28.97;;;6.50;95.30;;;;;;5094700;28;20030;-67
2022/01/03 05:10:43;;;;;;;42.57;29.83;;;6.50;95.20;;;;;;5096039;28;20043;-68
2022/01/03 05:13:09;;;;;;;44.07;29.60;;;6.50;95.20;;;;;;5095758;28;20369;-67
2022/01/03 05:15:35;;;;;;;43.60;29.40;;;6.50;95.40;;;;;;5095854;28;20028;-68
2022/01/03 05:18:00;;;;;;;41.70;29.10;;;6.50;95.50;;;;;;5095810;28;20073;-67
2022/01/03 05:20:26;;;;;;;44.77;29.43;;;6.50;95.50;;;;;;5095608;28;20097;-67
2022/01/03 05:22:52;;;;;;;45.10;30.23;;;6.40;95.50;;;;;;5094638;28;20036;-68
2022/01/03 05:25:17;;;;;;;47.40;30.60;;;6.40;95.70;;;;;;5095345;28;20046;-67
2022/01/03 05:27:44;;;;;;;41.60;29.77;;;6.50;95.60;;;;;;5095399;28;20027;-67
2022/01/03 05:30:10;;;;;;;44.37;30.87;;;6.40;95.80;;;;;;5095829;28;20099;-68
2022/01/03 05:32:36;;;;;;;49.23;31.67;;;6.40;95.80;;;;;;5095822;28;20028;-68
2022/01/03 05:35:02;;;;;;;44.80;31.03;;;6.40;95.80;;;;;;5095392;28;20020;-67
2022/01/03 05:37:28;;;;;;;47.83;31.17;;;6.50;95.80;;;;;;5095323;28;20012;-67
2022/01/03 05:39:53;;;;;;;48.37;31.70;;;6.50;95.80;;;;;;5095380;28;20465;-67
2022/01/03 05:42:19;;;;;;;48.77;30.37;;;6.50;95.70;;;;;;5095009;28;20146;-67
2022/01/03 05:44:45;;;;;;;51.83;31.37;;;6.50;95.60;;;;;;5095212;28;20099;-67
2022/01/03 05:47:10;;;;;;;48.30;29.83;;;6.50;95.60;;;;;;5095303;28;20027;-67
2022/01/03 05:49:36;;;;;;;53.90;30.03;;;6.50;95.60;;;;;;5095004;28;20020;-67
2022/01/03 05:52:02;;;;;;;49.67;29.30;;;6.50;95.80;;;;;;5093560;28;20107;-68
2022/01/03 05:54:28;;;;;;;49.73;30.17;;;6.50;95.80;;;;;;5095020;28;20028;-67
2022/01/03 05:56:53;;;;;;;45.63;28.60;;;6.50;96.00;;;;;;5094965;28;20080;-67
2022/01/03 05:59:19;;;;;;;51.80;29.60;;;6.50;96.20;;;;;;5095105;28;20028;-67
2022/01/03 06:01:46;;;;;;;51.73;29.30;;;6.50;96.10;;;;;;5095140;28;20027;-67
2022/01/03 06:04:21;;;;;;;51.87;31.40;;;6.50;96.10;;;;;;5094770;28;20020;-67
2022/01/03 06:06:53;;;;;;;47.50;30.53;;;6.60;96.00;;;;;;5094841;28;20511;-67
2022/01/03 06:09:20;;;;;;;47.55;29.13;;;6.60;95.80;;;;;;5094537;28;20483;-68
2022/01/03 06:11:46;;;;;;;41.87;28.00;;;6.60;95.80;;;;;;5094672;28;20036;-67
2022/01/03 06:14:15;;;;;;;49.80;29.37;;;6.60;95.70;;;;;;5094423;28;20024;-68
2022/01/03 06:16:41;;;;;;;43.60;27.17;;;6.60;95.70;;;;;;5094527;28;20032;-68
2022/01/03 06:19:07;;;;;;;45.63;28.07;;;6.60;95.70;;;;;;5094719;28;20077;-67
2022/01/03 06:21:35;;;;;;;41.60;26.17;;;6.60;95.70;;;;;;5094742;28;20043;-68
2022/01/03 06:24:01;;;;;;;45.73;27.90;;;6.60;95.60;;;;;;5094572;28;20031;-67
2022/01/03 06:26:27;;;;;;;43.37;25.90;;;6.70;95.60;;;;;;5094402;28;20037;-71
2022/01/03 06:28:52;;;;;;;45.57;27.13;;;6.70;95.50;;;;;;5094638;28;20027;-67
2022/01/03 06:31:18;;;;;;;40.60;25.37;;;6.70;95.70;;;;;;5094481;28;20071;-67
2022/01/03 06:33:44;;;;;;;47.63;28.47;;;6.70;95.70;;;;;;5094207;28;20020;-67
2022/01/03 06:36:09;;;;;;;41.80;24.57;;;6.70;95.70;;;;;;5094262;28;20032;-67
2022/01/03 06:38:35;;;;;;;48.40;25.93;;;6.70;95.60;;;;;;5094359;28;20024;-68
2022/01/03 06:41:01;;;;;;;44.87;27.80;;;6.70;95.70;;;;;;5094037;28;20485;-68
2022/01/03 06:43:26;;;;;;;42.47;26.43;;;6.70;95.70;;;;;;5094312;28;20098;-67
2022/01/03 06:45:52;;;;;;;46.60;25.73;;;6.70;95.80;;;;;;5094160;28;20028;-67
2022/01/03 06:48:17;;;;;;;38.53;24.73;;;6.70;95.90;;;;;;5094006;28;20024;-68
2022/01/03 06:50:43;;;;;;;41.80;25.07;;;6.70;95.90;;;;;;5093846;28;20028;-67
2022/01/03 06:53:09;;;;;;;43.10;25.97;;;6.70;95.90;;;;;;5093922;28;20031;-67
2022/01/03 06:55:34;;;;;;;43.67;25.97;;;6.70;96.20;;;;;;5093979;28;20080;-67
2022/01/03 06:58:00;;;;;;;73.90;43.87;;;6.70;96.10;;;;;;5093874;28;20055;-68
2022/01/03 07:00:26;;;;;;;64.93;40.87;;;6.70;96.00;;;;;;5093651;28;20028;-67
2022/01/03 07:02:51;;;;;;;46.33;28.60;;;6.70;96.20;;;;;;5093736;28;20484;-67
2022/01/03 07:05:17;;;;;;;52.80;30.87;;;6.70;96.50;;;;;;5093576;28;20029;-67
2022/01/03 07:07:42;;;;;;;57.87;31.03;;;6.60;97.10;;;;;;5109386;28;20032;-67
2022/01/03 07:10:09;;;;;;;56.90;33.53;;;6.60;97.40;;;;;;5093924;28;20020;-67
2022/01/03 07:12:36;;;;;;;54.73;33.87;;;6.60;97.40;;;;;;5093668;28;20101;-68
2022/01/03 07:20:35;;;;;;;62.50;38.03;;;6.60;97.80;;;;;;5064381;28;20040;-67
2022/01/03 07:23:00;;;;;;;65.13;37.57;;;6.60;97.80;;;;;;5092636;28;20039;-68
2022/01/03 07:25:26;;;;;;;58.33;36.57;;;6.50;97.80;;;;;;5092244;28;20035;-68
2022/01/03 07:27:52;;;;;;;65.10;35.37;;;6.60;97.90;;;;;;5092634;28;20055;-68
2022/01/03 07:30:17;;;;;;;56.63;34.37;;;6.60;97.70;;;;;;5092552;28;20077;-68
2022/01/03 07:32:43;;;;;;;60.73;36.67;;;6.60;97.60;;;;;;5065152;28;20113;-68
2022/01/03 07:35:13;;;;;;;53.10;33.87;;;6.70;97.40;;;;;;5093042;28;20016;-68
2022/01/03 07:37:39;;;;;;;53.17;32.33;;;6.70;97.30;;;;;;5093110;28;20060;-68
2022/01/03 07:40:05;;;;;;;53.77;31.93;;;6.70;97.10;;;;;;5092605;28;20052;-67
2022/01/03 07:42:31;;;;;;;57.57;32.90;;;6.70;97.10;;;;;;5092482;28;20047;-68
2022/01/03 07:44:57;;;;;;;50.70;30.47;;;6.70;97.00;;;;;;5092388;28;20024;-68
2022/01/03 07:47:22;;;;;;;52.83;31.93;;;6.70;97.00;;;;;;5092979;28;20035;-67
2022/01/03 07:49:48;;;;;;;51.63;31.83;;;6.70;96.90;;;;;;5092725;28;20461;-68
2022/01/03 07:52:13;;;;;;;54.53;31.93;;;6.70;96.80;;;;;;5091470;28;20032;-68
2022/01/03 07:54:39;;;;;;;57.07;32.83;;;6.80;96.70;;;;;;5092669;28;20028;-67
2022/01/03 07:57:05;;;;;;;53.50;32.67;;;6.80;96.60;;;;;;5092796;28;20085;-67
2022/01/03 07:59:30;;;;;;;53.13;33.03;;;6.80;96.50;;;;;;5092610;28;20020;-68
2022/01/03 08:01:57;;;;;;;61.60;33.93;;;6.80;96.40;;;;;;5092446;28;20097;-68
2022/01/03 08:04:23;;;;;;;54.27;32.60;;;6.90;96.30;;;;;;5092378;28;20012;-67
2022/01/03 08:06:48;;;;;;;60.70;35.20;;;6.90;96.20;;;;;;5092582;28;20054;-67
2022/01/03 08:09:14;;;;;;;56.57;33.50;;;6.80;96.20;;;;;;5092837;28;20020;-67
2022/01/03 08:11:40;;;;;;;56.47;32.30;;;6.90;96.10;;;;;;5092431;28;20472;-68
2022/01/03 08:14:06;;;;;;;52.60;32.67;;;6.90;97.00;;;;;;5092373;28;20046;-67
2022/01/03 08:16:31;;;;;;;50.80;30.67;;;6.90;97.00;;;;;;5092609;28;20480;-67
2022/01/03 08:18:57;;;;;;;51.00;30.73;;;6.80;96.80;;;;;;5092714;28;20024;-67
2022/01/03 08:21:23;;;;;;;57.90;33.33;;;6.90;96.70;;;;;;5092689;28;20518;-67
2022/01/03 08:23:48;;;;;;;53.43;33.07;;;6.90;96.50;;;;;;5092979;28;20521;-69
2022/01/03 08:26:14;;;;;;;53.93;32.63;;;6.90;96.40;;;;;;5092993;28;20035;-71
2022/01/03 08:28:39;;;;;;;57.50;35.77;;;6.90;96.30;;;;;;5092875;28;20028;-68
2022/01/03 08:31:05;;;;;;;54.53;34.43;;;6.90;96.20;;;;;;5093451;28;20110;-71
2022/01/03 08:33:31;;;;;;;53.80;32.33;;;6.90;96.10;;;;;;5092544;28;20063;-71
2022/01/03 08:35:57;;;;;;;51.57;32.23;;;7.00;96.00;;;;;;5091453;28;20037;-75
2022/01/03 08:38:25;;;;;;;58.83;35.10;;;7.00;96.00;;;;;;5090054;28;20458;-72
2022/01/03 08:41:00;;;;;;;55.17;33.93;;;7.00;96.00;;;;;;5090063;28;20528;-79
2022/01/03 08:43:26;;;;;;;62.97;39.70;;;6.90;95.90;;;;;;5092979;28;20395;-65
2022/01/03 08:45:52;;;;;;;59.20;38.43;;;7.00;95.90;;;;;;5092587;28;20021;-66
2022/01/03 08:48:17;;;;;;;61.73;38.07;;;7.00;95.90;;;;;;5092690;28;20119;-65
2022/01/03 08:50:43;;;;;;;62.67;39.10;;;7.00;95.90;;;;;;5092422;28;20066;-67
2022/01/03 08:53:09;;;;;;;57.03;36.47;;;7.00;95.80;;;;;;5092326;28;20043;-71
2022/01/03 08:55:34;;;;;;;63.57;37.17;;;7.00;95.80;;;;;;5091827;28;20020;-69
2022/01/03 08:58:00;;;;;;;55.90;35.27;;;7.00;95.90;;;;;;5094444;28;20460;-67
2022/01/03 09:00:26;;;;;;;60.30;35.40;;;7.00;95.80;;;;;;5095017;28;20035;-67
2022/01/03 09:02:51;;;;;;;53.57;34.03;;;7.00;96.20;;;;;;5095887;28;20122;-67
2022/01/03 09:05:17;;;;;;;57.90;34.87;;;7.00;96.10;;;;;;5095761;28;20380;-66
2022/01/03 09:07:43;;;;;;;62.03;35.63;;;7.10;96.10;;;;;;5096026;28;20387;-68
2022/01/03 09:10:09;;;;;;;60.43;34.87;;;7.10;96.00;;;;;;5095748;28;20516;-68
2022/01/03 09:12:34;;;;;;;60.93;35.47;;;7.10;96.10;;;;;;5095899;28;20107;-68
2022/01/03 09:15:01;;;;;;;57.73;33.97;;;7.10;96.10;;;;;;5095490;28;20027;-67
2022/01/03 09:17:27;;;;;;;57.53;34.73;;;7.10;96.20;;;;;;5095642;28;20387;-67
2022/01/03 09:19:53;;;;;;;60.30;36.97;;;7.10;96.20;;;;;;5095391;28;20116;-66
2022/01/03 09:22:24;;;;;;;56.80;35.60;;;7.10;96.10;;;;;;5095412;28;20441;-68
2022/01/03 09:30:05;;;;;;;78.23;45.23;;;7.20;95.90;;;;;;5095343;28;20548;-67
2022/01/03 09:32:31;;;;;;;68.67;41.93;;;7.10;95.80;;;;;;5095667;28;20396;-67
2022/01/03 09:34:58;;;;;;;67.53;40.37;;;7.10;95.90;;;;;;5095439;28;20020;-67
2022/01/03 09:37:24;;;;;;;66.70;40.90;;;7.10;95.90;;;;;;5095272;28;20016;-67
2022/01/03 09:39:54;;;;;;;62.70;38.97;;;7.20;96.00;;;;;;5094021;28;20105;-68
2022/01/03 09:42:23;;;;;;;61.17;36.07;;;7.20;96.30;;;;;;5095042;28;20029;-68
2022/01/03 09:44:50;;;;;;;69.03;36.80;;;7.20;96.10;;;;;;5095056;28;20028;-67
2022/01/03 09:47:17;;;;;;;64.83;38.93;;;7.20;96.30;;;;;;5095380;28;20027;-68
2022/01/03 09:49:44;;;;;;;64.10;38.60;;;7.10;96.90;;;;;;5095439;28;20028;-68
2022/01/03 09:52:11;;;;;;;64.23;38.47;;;7.10;97.20;;;;;;5095058;28;20028;-68
2022/01/03 09:54:38;;;;;;;68.70;38.27;;;7.10;97.40;;;;;;5095339;28;20020;-71
2022/01/03 09:57:05;;;;;;;58.50;36.97;;;7.10;97.30;;;;;;5092749;28;20032;-68
2022/01/03 09:59:31;;;;;;;70.57;41.03;;;7.10;97.10;;;;;;5092383;28;20507;-71
2022/01/03 10:01:58;;;;;;;74.07;40.63;;;7.10;97.70;;;;;;5093963;28;20436;-74
2022/01/03 10:04:24;;;;;;;65.87;39.07;;;7.10;97.80;;;;;;5094828;28;20091;-74
2022/01/03 10:06:51;;;;;;;78.27;37.17;;;7.10;98.10;;;;;;5094837;28;20437;-75
2022/01/03 10:09:19;;;;;;;69.67;38.27;;;7.10;98.20;;;;;;5094524;28;20035;-74
2022/01/03 10:11:45;;;;;;;71.97;37.90;;;7.10;98.30;;;;;;5094804;28;20028;-74
2022/01/03 10:14:13;;;;;;;80.23;41.47;;;7.10;98.30;;;;;;5094602;28;20106;-74
2022/01/03 10:16:41;;;;;;;79.70;40.07;;;7.10;98.30;;;;;;5094675;28;20103;-75
2022/01/03 10:19:07;;;;;;;76.80;39.13;;;7.10;98.20;;;;;;5094652;28;20020;-74
2022/01/03 10:21:40;;;;;;;89.60;42.00;;;7.10;98.10;;;;;;5093218;28;20081;-75
2022/01/03 10:24:07;;;;;;;77.37;42.37;;;7.10;98.10;;;;;;5094585;28;20032;-74
2022/01/03 10:26:34;;;;;;;76.37;38.73;;;7.10;98.10;;;;;;5094223;28;20031;-75
2022/01/03 10:29:15;;;;;;;86.10;40.30;;;7.10;98.10;;;;;;5094447;28;20369;-75
2022/01/03 10:31:43;;;;;;;79.60;38.17;;;7.10;98.20;;;;;;5094585;28;20435;-74
2022/01/03 10:34:11;;;;;;;92.37;40.87;;;7.10;98.20;;;;;;5094096;28;20032;-73
2022/01/03 10:36:38;;;;;;;82.17;41.03;;;7.10;98.10;;;;;;5092971;28;20032;-71
2022/01/03 10:39:15;;;;;;;74.40;40.03;;;7.10;98.30;;;;;;5094442;28;20388;-75
2022/01/03 10:41:41;;;;;;;83.50;42.30;;;7.20;98.30;;;;;;5094055;28;20082;-75
2022/01/03 10:44:09;;;;;;;1507.87;123.87;;;7.10;98.30;;;;;;5094191;28;20072;-76
2022/01/03 10:46:36;;;;;;;95.07;45.47;;;7.10;98.50;;;;;;5094268;28;20121;-75
2022/01/03 10:49:06;;;;;;;72.83;38.47;;;7.20;99.20;;;;;;5094208;28;20028;-76
2022/01/03 10:51:32;;;;;;;77.67;39.67;;;7.20;99.00;;;;;;5094222;28;20032;-77
2022/01/03 10:53:58;;;;;;;65.03;36.33;;;7.20;99.10;;;;;;5093845;28;20075;-79
2022/01/03 10:56:38;;;;;;;71.60;36.60;;;7.20;99.00;;;;;;5093961;28;20442;-73
2022/01/03 10:59:09;;;;;;;1107.23;77.27;;;7.30;99.60;;;;;;5093789;28;20036;-72
2022/01/03 11:01:35;;;;;;;65.10;34.37;;;7.30;99.60;;;;;;5093776;28;20028;-79
2022/01/03 11:04:02;;;;;;;70.43;36.23;;;7.30;99.60;;;;;;5093868;28;20388;-77
2022/01/03 11:11:44;;;;;;;64.50;36.10;;;7.30;99.20;;;;;;5094317;28;20050;-71
2022/01/03 11:14:39;;;;;;;67.70;35.78;;;7.40;99.50;;;;;;5093601;28;20057;-69
2022/01/03 11:17:23;;;;;;;61.33;34.07;;;7.40;99.40;;;;;;5093266;28;20364;-74
2022/01/03 11:19:48;;;;;;;62.43;32.47;;;7.40;99.60;;;;;;5092406;28;20502;-78
2022/01/03 11:22:36;;;;;;;56.70;30.80;;;7.40;99.40;;;;;;5093317;28;20032;-77
2022/01/03 11:25:01;;;;;;;349.63;53.53;;;7.40;99.30;;;;;;5093562;28;20024;-77
2022/01/03 11:27:27;;;;;;;63.27;33.10;;;7.40;99.30;;;;;;5093292;28;20388;-75
2022/01/03 11:29:53;;;;;;;55.07;32.70;;;7.40;99.60;;;;;;5093172;28;20027;-75
2022/01/03 11:32:19;;;;;;;51.43;29.27;;;7.40;99.90;;;;;;5093073;28;20020;-72
2022/01/03 11:34:45;;;;;;;49.80;30.63;;;7.40;99.90;;;;;;5093092;28;20099;-76
2022/01/03 11:37:12;;;;;;;49.23;30.43;;;7.50;99.90;;;;;;5093181;28;20044;-72
2022/01/03 11:39:37;;;;;;;45.03;28.97;;;7.50;99.90;;;;;;5093176;28;20032;-75
2022/01/03 11:42:03;;;;;;;45.97;28.00;;;7.50;99.90;;;;;;5092975;28;20376;-71
2022/01/03 11:44:30;;;;;;;43.93;28.43;;;7.50;99.80;;;;;;5093280;28;20038;-76
2022/01/03 11:46:56;;;;;;;50.73;30.37;;;7.50;99.80;;;;;;5093205;28;20016;-71
2022/01/03 11:49:22;;;;;;;57.07;31.27;;;7.50;99.60;;;;;;5092990;28;20031;-71
2022/01/03 11:51:48;;;;;;;80.73;35.90;;;7.40;99.60;;;;;;5093034;28;20089;-69
2022/01/03 11:54:16;;;;;;;76.13;35.90;;;7.40;99.90;;;;;;5093127;28;20074;-69
2022/01/03 11:56:47;;;;;;;60.77;31.90;;;7.50;99.90;;;;;;5093258;28;20103;-69
2022/01/03 12:04:33;;;;;;;959.47;76.67;;;7.50;99.90;;;;;;5093231;28;20093;-69
2022/01/03 12:07:13;;;;;;;825.80;63.13;;;7.50;99.90;;;;;;5093045;28;20042;-69
2022/01/03 12:09:53;;;;;;;56.03;31.30;;;7.50;99.90;;;;;;5093181;28;20092;-69
2022/01/03 12:12:33;;;;;;;52.57;29.00;;;7.50;99.90;;;;;;5093114;28;20115;-69
2022/01/03 12:15:02;;;;;;;61.20;32.43;;;7.50;99.90;;;;;;5092977;28;20056;-69
2022/01/03 12:17:49;;;;;;;63.83;34.97;;;7.50;99.90;;;;;;5092730;28;20020;-69
2022/01/03 12:20:15;;;;;;;74.63;29.97;;;7.50;99.90;;;;;;5092898;28;20051;-69
2022/01/03 12:22:52;;;;;;;47.30;26.67;;;7.50;99.90;;;;;;5092727;28;20480;-69
2022/01/03 12:25:28;;;;;;;44.43;25.63;;;7.50;99.90;;;;;;5093187;28;20387;-69
2022/01/03 12:27:56;;;;;;;98.77;28.47;;;7.50;99.90;;;;;;5089961;28;20069;-68
2022/01/03 12:30:24;;;;;;;41.60;25.90;;;7.50;99.80;;;;;;5075164;28;20456;-69
2022/01/03 12:33:06;;;;;;;54.30;26.57;;;7.60;99.90;;;;;;5076123;28;20032;-69
2022/01/03 12:35:34;;;;;;;46.67;27.20;;;7.70;99.90;;;;;;5076307;28;20025;-70
2022/01/03 12:38:02;;;;;;;100.80;61.23;;;7.60;99.70;;;;;;5076272;28;20434;-70
2022/01/03 12:40:34;;;;;;;47.73;28.53;;;7.60;99.60;;;;;;5073071;28;20032;-69
2022/01/03 12:43:11;;;;;;;44.23;26.87;;;7.70;99.50;;;;;;5073454;28;20044;-69
2022/01/03 12:45:39;;;;;;;47.03;28.10;;;7.60;99.50;;;;;;5074524;28;20289;-69
2022/01/03 12:50:43;;;;;;;44.13;26.93;;;7.60;99.60;;;;;;5076117;28;20108;-68
2022/01/03 12:53:30;;;;;;;43.72;27.05;;;7.70;99.60;;;;;;5075762;28;20025;-73
2022/01/03 12:56:03;;;;;;;46.33;28.07;;;7.70;99.50;;;;;;5064240;28;20384;-75
2022/01/03 12:58:28;;;;;;;45.20;27.77;;;7.70;99.40;;;;;;5076023;28;20025;-76
2022/01/03 13:00:54;;;;;;;44.83;27.27;;;7.70;99.40;;;;;;5073063;28;20056;-70
2022/01/03 13:03:52;;;;;;;48.30;28.67;;;7.70;99.30;;;;;;5072860;28;20497;-70
2022/01/03 13:06:17;;;;;;;47.67;30.70;;;7.70;99.20;;;;;;5075806;28;20020;-78